createdAt,value
2022-11-16T00:03:35.586Z,99389.03
2022-11-16T00:08:41.087Z,99375.53
2022-11-16T00:13:43.533Z,99374.34
2022-11-16T00:18:45.274Z,99380.69
2022-11-16T00:23:46.698Z,99382.41
2022-11-16T00:28:48.546Z,99372.13
2022-11-16T00:33:50.787Z,99387.06
2022-11-16T00:38:53.858Z,99372.53
2022-11-16T00:43:55.524Z,99376.56
2022-11-16T00:48:56.979Z,99369.53
2022-11-16T00:53:58.394Z,99364.72
2022-11-16T00:59:00.094Z,99373.16
2022-11-16T01:04:01.606Z,99377.44
2022-11-16T01:09:03.254Z,99388.78
2022-11-16T01:14:07.969Z,99388.97
2022-11-16T01:19:09.693Z,99394.97
2022-11-16T01:24:11.702Z,99392.91
2022-11-16T01:29:13.315Z,99381.91
2022-11-16T01:34:19.606Z,99368.50
2022-11-16T01:39:21.228Z,99364.47
2022-11-16T01:44:33.677Z,99349.41
2022-11-16T01:49:51.794Z,99357.50
2022-11-16T01:54:56.695Z,99352.75
2022-11-16T02:00:03.662Z,99354.38
2022-11-16T02:05:22.069Z,99353.78
2022-11-16T02:10:41.243Z,99352.41
2022-11-16T02:15:49.222Z,99349.75
2022-11-16T02:21:13.973Z,99330.13
2022-11-16T02:26:42.789Z,99328.25
2022-11-16T02:32:14.795Z,99332.72
2022-11-16T02:37:19.889Z,99326.84
2022-11-16T02:42:30.063Z,99320.09
2022-11-16T02:47:34.982Z,99327.56
2022-11-16T02:52:38.958Z,99318.28
2022-11-16T02:57:49.357Z,99306.41
2022-11-16T03:03:01.132Z,99310.53
2022-11-16T03:08:34.317Z,99314.06
2022-11-16T03:13:40.751Z,99312.41
2022-11-16T03:18:46.839Z,99324.09
2022-11-16T03:23:49.675Z,99324.47
2022-11-16T03:29:33.298Z,99336.84
2022-11-16T03:34:47.563Z,99335.31
2022-11-16T03:39:52.219Z,99344.25
2022-11-16T03:44:55.045Z,99345.97
2022-11-16T03:49:56.594Z,99348.38
2022-11-16T03:54:59.078Z,99351.81
2022-11-16T04:00:01.553Z,99353.09
2022-11-16T04:05:23.255Z,99357.41
2022-11-16T04:10:43.468Z,99357.41
2022-11-16T04:16:03.587Z,99367.13
2022-11-16T04:21:23.941Z,99374.53
2022-11-16T04:26:45.992Z,99376.25
2022-11-16T04:32:05.926Z,99378.63
2022-11-16T04:37:36.393Z,99373.81
2022-11-16T04:42:39.077Z,99368.50
2022-11-16T04:47:41.008Z,99373.22
2022-11-16T04:52:43.026Z,99382.25
2022-11-16T04:57:47.040Z,99388.25
2022-11-16T05:02:49.340Z,99392.75
2022-11-16T05:07:51.244Z,99389.81
2022-11-16T05:12:58.549Z,99403.56
2022-11-16T05:18:01.742Z,99398.41
2022-11-16T05:23:04.997Z,99404.53
2022-11-16T05:28:10.026Z,99411.50
2022-11-16T05:33:16.396Z,99407.19
2022-11-16T05:38:19.270Z,99412.69
2022-11-16T05:43:24.221Z,99414.06
2022-11-16T05:48:34.454Z,99413.22
2022-11-16T05:53:37.035Z,99411.63
2022-11-16T05:58:40.175Z,99421.59
2022-11-16T06:03:41.751Z,99425.16
2022-11-16T06:08:43.327Z,99430.31
2022-11-16T06:13:49.513Z,99435.28
2022-11-16T06:18:51.628Z,99442.09
2022-11-16T06:23:54.138Z,99455.13
2022-11-16T06:28:55.706Z,99463.59
2022-11-16T06:33:58.186Z,99461.84
2022-11-16T06:39:02.035Z,99471.44
2022-11-16T06:44:05.964Z,99470.75
2022-11-16T06:49:11.389Z,99477.00
2022-11-16T06:54:13.217Z,99490.16
2022-11-16T06:59:15.846Z,99487.56
2022-11-16T07:04:18.159Z,99499.41
2022-11-16T07:09:25.638Z,99511.91
2022-11-16T07:14:27.266Z,99518.94
2022-11-16T07:19:28.827Z,99509.78
2022-11-16T07:24:30.930Z,99509.84
2022-11-16T07:29:32.599Z,99510.22
2022-11-16T07:34:52.763Z,99520.63
2022-11-16T07:39:55.005Z,99529.84
2022-11-16T07:44:58.119Z,99538.53
2022-11-16T07:49:59.816Z,99539.00
2022-11-16T07:55:02.860Z,99544.75
2022-11-16T08:00:06.410Z,99546.72
2022-11-16T08:05:22.980Z,99560.34
2022-11-16T08:10:25.760Z,99566.66
2022-11-16T08:15:28.833Z,99567.44
2022-11-16T08:20:32.834Z,99577.47
2022-11-16T08:25:34.452Z,99576.47
2022-11-16T08:30:39.385Z,99579.22
2022-11-16T08:35:41.920Z,99585.47
2022-11-16T08:40:43.466Z,99590.00
2022-11-16T08:45:49.310Z,99578.47
2022-11-16T08:51:15.880Z,99588.03
2022-11-16T08:56:17.029Z,99597.09
2022-11-16T09:01:21.460Z,99600.31
2022-11-16T09:06:24.665Z,99604.31
2022-11-16T09:11:26.391Z,99612.78
2022-11-16T09:16:28.699Z,99617.09
2022-11-16T09:21:30.470Z,99619.22
2022-11-16T09:26:31.930Z,99624.41
2022-11-16T09:31:37.318Z,99622.28
2022-11-16T09:36:38.822Z,99625.91
2022-11-16T09:41:55.525Z,99620.72
2022-11-16T09:46:59.872Z,99625.56
2022-11-16T09:52:10.697Z,99621.78
2022-11-16T09:57:17.378Z,99618.03
2022-11-16T10:02:22.218Z,99620.84
2022-11-16T10:07:31.415Z,99620.88
2022-11-16T10:12:50.688Z,99626.59
2022-11-16T10:17:58.342Z,99619.72
2022-11-16T10:23:34.086Z,99619.06
2022-11-16T10:29:00.577Z,99620.44
2022-11-16T10:34:06.828Z,99622.09
2022-11-16T10:39:14.071Z,99605.44
2022-11-16T10:44:32.700Z,99601.91
2022-11-16T10:49:53.528Z,99607.59
2022-11-16T10:54:55.036Z,99604.50
2022-11-16T10:59:57.071Z,99597.00
2022-11-16T11:05:20.027Z,99584.00
2022-11-16T11:10:33.666Z,99587.09
2022-11-16T11:15:35.190Z,99585.91
2022-11-16T11:20:44.289Z,99583.97
2022-11-16T11:25:57.922Z,99574.41
2022-11-16T11:31:02.636Z,99564.31
2022-11-16T11:36:18.548Z,99555.72
2022-11-16T11:41:20.608Z,99548.28
2022-11-16T11:46:56.183Z,99547.19
2022-11-16T11:51:56.435Z,99540.94
2022-11-16T11:57:00.930Z,99534.84
2022-11-16T12:02:19.591Z,99527.66
2022-11-16T12:07:34.556Z,99521.88
2022-11-16T12:13:05.818Z,99524.53
2022-11-16T12:18:31.824Z,99523.91
2022-11-16T12:23:57.496Z,99519.22
2022-11-16T12:29:19.503Z,99515.00
2022-11-16T12:34:49.679Z,99504.38
2022-11-16T12:40:00.121Z,99493.06
2022-11-16T12:45:32.543Z,99493.06
2022-11-16T12:50:43.740Z,99485.03
2022-11-16T12:56:17.239Z,99476.41
2022-11-16T13:01:31.118Z,99477.75
2022-11-16T13:06:44.182Z,99463.41
2022-11-16T13:11:58.301Z,99459.06
2022-11-16T13:17:01.777Z,99447.75
2022-11-16T13:22:22.696Z,99460.94
2022-11-16T13:27:51.024Z,99447.50
2022-11-16T13:33:22.279Z,99446.28
2022-11-16T13:38:49.500Z,99442.41
2022-11-16T13:43:50.995Z,99424.84
2022-11-16T13:48:53.199Z,99424.84
2022-11-16T13:59:22.846Z,99421.50
2022-11-16T14:04:58.091Z,99422.09
2022-11-16T14:09:59.925Z,99427.91
2022-11-16T14:15:20.798Z,99424.28
2022-11-16T14:20:31.529Z,99409.38
2022-11-16T14:25:41.995Z,99405.09
2022-11-16T14:31:07.639Z,99420.25
2022-11-16T14:36:10.554Z,99424.81
2022-11-16T14:41:21.027Z,99406.47
2022-11-16T14:46:26.256Z,99410.28
2022-11-16T14:51:58.758Z,99400.72
2022-11-16T14:57:02.650Z,99385.66
2022-11-16T15:02:25.203Z,99391.03
2022-11-16T15:07:29.603Z,99393.03
2022-11-16T15:12:44.208Z,99378.31
2022-11-16T15:17:52.048Z,99375.38
2022-11-16T15:22:56.589Z,99381.88
2022-11-16T15:28:00.342Z,99378.59
2022-11-16T15:33:07.834Z,99362.94
2022-11-16T15:38:22.354Z,99377.59
2022-11-16T15:43:30.551Z,99354.06
2022-11-16T15:48:33.566Z,99354.38
2022-11-16T15:53:38.134Z,99353.38
2022-11-16T15:58:42.085Z,99336.66
2022-11-16T16:04:05.497Z,99339.09
2022-11-16T16:09:07.027Z,99345.09
2022-11-16T16:14:10.681Z,99338.16
2022-11-16T16:19:30.225Z,99333.06
2022-11-16T16:24:47.232Z,99320.38
2022-11-16T16:29:51.115Z,99315.59
2022-11-16T16:34:54.838Z,99301.53
2022-11-16T16:39:57.080Z,99297.31
2022-11-16T16:45:00.054Z,99302.28
2022-11-16T16:50:01.624Z,99291.78
2022-11-16T16:55:03.390Z,99298.44
2022-11-16T17:00:05.362Z,99297.63
2022-11-16T17:05:07.322Z,99286.66
2022-11-16T17:10:09.166Z,99293.50
2022-11-16T17:15:15.068Z,99281.50
2022-11-16T17:20:19.533Z,99278.75
2022-11-16T17:25:21.011Z,99270.75
2022-11-16T17:30:22.430Z,99260.94
2022-11-16T17:35:23.952Z,99265.88
2022-11-16T17:40:25.410Z,99261.97
2022-11-16T17:45:27.411Z,99253.69
2022-11-16T17:50:28.837Z,99234.72
2022-11-16T17:55:30.343Z,99226.16
2022-11-16T18:00:31.800Z,99228.38
2022-11-16T18:05:33.302Z,99221.56
2022-11-16T18:10:38.658Z,99230.59
2022-11-16T18:15:42.611Z,99225.59
2022-11-16T18:20:44.474Z,99224.53
2022-11-16T18:25:46.027Z,99218.00
2022-11-16T18:30:47.665Z,99227.25
2022-11-16T18:35:49.135Z,99228.00
2022-11-16T18:41:22.577Z,99231.03
2022-11-16T18:46:29.093Z,99228.16
2022-11-16T18:51:31.095Z,99218.91
2022-11-16T18:56:32.666Z,99211.22
2022-11-16T19:01:34.248Z,99206.50
2022-11-16T19:06:35.675Z,99207.47
2022-11-16T19:11:37.388Z,99209.63
2022-11-16T19:16:43.380Z,99188.47
2022-11-16T19:21:52.478Z,99183.88
2022-11-16T19:26:53.891Z,99194.00
2022-11-16T19:31:55.307Z,99193.50
2022-11-16T19:36:56.710Z,99178.41
2022-11-16T19:41:58.213Z,99161.13
2022-11-16T19:46:59.851Z,99157.63
2022-11-16T19:52:01.344Z,99138.03
2022-11-16T19:57:02.879Z,99131.00
2022-11-16T20:02:04.773Z,99120.09
2022-11-16T20:07:07.448Z,99104.88
2022-11-16T20:12:09.010Z,99098.38
2022-11-16T20:17:11.501Z,99089.28
2022-11-16T20:22:13.089Z,99077.84
2022-11-16T20:27:14.523Z,99061.13
2022-11-16T20:32:15.966Z,99058.56
2022-11-16T20:37:17.475Z,99060.44
2022-11-16T20:42:19.446Z,99058.81
2022-11-16T20:47:21.050Z,99051.34
2022-11-16T20:52:22.550Z,99053.22
2022-11-16T20:57:23.947Z,99034.75
2022-11-16T21:02:25.526Z,99035.03
2022-11-16T21:07:27.183Z,99026.63
2022-11-16T21:12:57.952Z,99013.59
2022-11-16T21:17:59.969Z,98994.56
2022-11-16T21:23:02.231Z,98985.25
2022-11-16T21:28:03.882Z,98978.88
2022-11-16T21:33:05.344Z,98977.97
2022-11-16T21:38:06.776Z,98965.34
2022-11-16T21:43:08.175Z,98955.44
2022-11-16T21:48:09.867Z,98939.44
2022-11-16T21:53:11.499Z,98931.88
2022-11-16T21:58:12.970Z,98925.03
2022-11-16T22:03:14.475Z,98916.06
2022-11-16T22:08:15.973Z,98906.16
2022-11-16T22:13:21.087Z,98894.06
2022-11-16T22:18:22.559Z,98888.47
2022-11-16T22:23:24.308Z,98876.50
2022-11-16T22:28:26.076Z,98857.66
2022-11-16T22:33:28.281Z,98837.69
2022-11-16T22:38:30.092Z,98830.38
2022-11-16T22:43:32.543Z,98815.31
2022-11-16T22:48:39.391Z,98812.06
2022-11-16T22:53:40.830Z,98800.56
2022-11-16T22:58:42.306Z,98788.88
2022-11-16T23:03:43.769Z,98776.38
2022-11-16T23:08:45.377Z,98763.34
2022-11-16T23:14:06.134Z,98747.88
2022-11-16T23:19:28.363Z,98741.91
2022-11-16T23:24:48.202Z,98719.75
2022-11-16T23:29:49.637Z,98695.81
2022-11-16T23:34:51.034Z,98665.81
2022-11-16T23:39:52.489Z,98627.00
2022-11-16T23:44:54.018Z,98612.47
2022-11-16T23:49:55.427Z,98601.84
2022-11-16T23:54:56.862Z,98601.84
2022-11-16T23:59:58.272Z,98566.13
